createdAt,value
2022-10-21T00:00:13.650Z,11.87
2022-10-21T00:04:15.550Z,11.88
2022-10-21T00:08:18.619Z,11.95
2022-10-21T00:12:20.587Z,11.89
2022-10-21T00:16:22.527Z,11.88
2022-10-21T00:20:24.627Z,11.86
2022-10-21T00:24:26.920Z,11.80
2022-10-21T00:28:29.412Z,11.76
2022-10-21T00:32:31.584Z,11.72
2022-10-21T00:36:33.593Z,11.75
2022-10-21T00:40:35.566Z,11.71
2022-10-21T00:44:40.398Z,11.63
2022-10-21T00:48:49.649Z,11.60
2022-10-21T00:52:52.669Z,11.54
2022-10-21T00:56:56.573Z,11.45
2022-10-21T01:01:01.052Z,11.18
2022-10-21T01:05:04.474Z,11.10
2022-10-21T01:09:07.538Z,11.08
2022-10-21T01:13:18.623Z,11.10
2022-10-21T01:18:08.676Z,11.09
2022-10-21T01:22:19.959Z,11.08
2022-10-21T01:26:31.051Z,11.12
2022-10-21T01:30:59.368Z,11.04
2022-10-21T01:35:03.250Z,10.91
2022-10-21T01:39:28.145Z,10.83
2022-10-21T01:43:42.200Z,10.93
2022-10-21T01:47:49.750Z,10.86
2022-10-21T01:51:54.332Z,10.82
2022-10-21T01:55:58.021Z,10.80
2022-10-21T02:00:01.555Z,10.71
2022-10-21T02:04:08.863Z,10.90
2022-10-21T02:08:10.977Z,10.97
2022-10-21T02:12:13.634Z,11.04
2022-10-21T02:16:22.690Z,11.07
2022-10-21T02:20:31.102Z,11.15
2022-10-21T02:24:37.186Z,11.21
2022-10-21T02:33:25.691Z,10.97
2022-10-21T02:37:33.938Z,10.66
2022-10-21T02:41:38.845Z,10.53
2022-10-21T02:45:41.255Z,10.50
2022-10-21T02:49:46.421Z,10.52
2022-10-21T02:53:48.676Z,10.52
2022-10-21T02:57:50.699Z,10.53
2022-10-21T03:01:52.718Z,10.57
2022-10-21T03:05:54.665Z,10.65
2022-10-21T03:09:56.674Z,10.79
2022-10-21T03:13:58.867Z,10.86
2022-10-21T03:18:01.323Z,10.84
2022-10-21T03:22:03.422Z,10.87
2022-10-21T03:26:05.617Z,10.88
2022-10-21T03:30:08.254Z,10.91
2022-10-21T03:34:10.405Z,10.88
2022-10-21T03:38:12.331Z,10.88
2022-10-21T03:42:14.330Z,10.88
2022-10-21T03:46:16.344Z,10.87
2022-10-21T03:50:23.615Z,10.81
2022-10-21T03:54:27.356Z,10.77
2022-10-21T03:58:29.303Z,10.78
2022-10-21T04:02:31.422Z,10.54
2022-10-21T04:06:33.494Z,10.58
2022-10-21T04:10:35.567Z,10.44
2022-10-21T04:14:39.042Z,10.30
2022-10-21T04:18:41.094Z,10.29
2022-10-21T04:22:43.155Z,10.39
2022-10-21T04:26:45.690Z,10.50
2022-10-21T04:30:49.679Z,10.57
2022-10-21T04:34:51.852Z,10.62
2022-10-21T04:38:53.856Z,10.69
2022-10-21T04:42:55.826Z,10.66
2022-10-21T04:46:57.775Z,10.57
2022-10-21T04:50:59.844Z,10.45
2022-10-21T04:55:01.919Z,10.50
2022-10-21T04:59:04.151Z,10.56
2022-10-21T05:03:06.539Z,10.61
2022-10-21T05:07:09.211Z,10.63
2022-10-21T05:11:11.164Z,10.53
2022-10-21T05:19:56.584Z,10.51
2022-10-21T05:23:58.598Z,10.55
2022-10-21T05:28:00.754Z,10.60
2022-10-21T05:32:03.216Z,10.51
2022-10-21T05:36:08.704Z,10.51
2022-10-21T05:40:19.131Z,10.53
2022-10-21T05:44:21.976Z,10.59
2022-10-21T05:48:24.591Z,10.62
2022-10-21T05:52:26.773Z,10.63
2022-10-21T05:56:28.772Z,10.74
2022-10-21T06:00:32.228Z,10.78
2022-10-21T06:04:37.918Z,10.90
2022-10-21T06:08:40.994Z,11.06
2022-10-21T06:12:44.144Z,11.16
2022-10-21T06:16:46.395Z,11.26
2022-10-21T06:20:48.820Z,11.39
2022-10-21T06:24:50.835Z,11.49
2022-10-21T06:28:53.059Z,11.60
2022-10-21T06:32:55.095Z,11.69
2022-10-21T06:36:57.309Z,11.69
2022-10-21T06:41:12.157Z,11.71
2022-10-21T06:45:15.660Z,11.83
2022-10-21T06:49:17.701Z,11.87
2022-10-21T06:53:19.970Z,11.93
2022-10-21T06:57:21.960Z,12.07
2022-10-21T07:01:35.194Z,12.13
2022-10-21T07:05:43.336Z,11.87
2022-10-21T07:09:46.062Z,11.74
2022-10-21T07:13:48.367Z,11.98
2022-10-21T07:17:50.403Z,12.20
2022-10-21T07:21:52.639Z,12.34
2022-10-21T07:25:54.628Z,12.53
2022-10-21T07:29:56.778Z,12.73
2022-10-21T07:34:00.081Z,12.91
2022-10-21T07:38:02.574Z,13.10
2022-10-21T07:42:04.453Z,13.26
2022-10-21T07:46:07.091Z,13.34
2022-10-21T07:50:09.553Z,13.49
2022-10-21T07:54:13.580Z,13.58
2022-10-21T07:58:15.600Z,13.67
2022-10-21T08:02:17.579Z,13.81
2022-10-21T08:06:19.745Z,13.91
2022-10-21T08:10:21.885Z,14.06
2022-10-21T08:14:24.616Z,14.22
2022-10-21T08:18:27.471Z,14.19
2022-10-21T08:22:29.833Z,14.02
2022-10-21T08:26:31.960Z,14.13
2022-10-21T08:30:34.214Z,14.31
2022-10-21T08:34:36.255Z,14.43
2022-10-21T08:38:38.511Z,14.66
2022-10-21T08:42:42.928Z,15.04
2022-10-21T08:46:52.995Z,15.36
2022-10-21T08:50:57.203Z,15.53
2022-10-21T08:55:05.276Z,15.74
2022-10-21T08:59:20.913Z,16.01
2022-10-21T09:03:31.927Z,16.04
2022-10-21T09:07:42.899Z,16.15
2022-10-21T09:11:44.809Z,16.31
2022-10-21T09:16:00.986Z,16.51
2022-10-21T09:20:07.681Z,16.75
2022-10-21T09:24:30.298Z,16.91
2022-10-21T09:28:33.112Z,16.92
2022-10-21T09:32:39.834Z,17.21
2022-10-21T09:36:48.654Z,17.48
2022-10-21T09:40:59.293Z,17.70
2022-10-21T09:45:01.387Z,17.86
2022-10-21T09:53:38.951Z,18.47
2022-10-21T09:57:46.487Z,18.73
2022-10-21T10:01:49.468Z,18.78
2022-10-21T10:05:51.479Z,19.02
2022-10-21T10:09:54.177Z,19.23
2022-10-21T10:13:56.107Z,19.34
2022-10-21T10:17:58.077Z,19.32
2022-10-21T10:22:14.610Z,19.09
2022-10-21T10:26:21.416Z,19.33
2022-10-21T10:30:25.425Z,19.53
2022-10-21T10:34:34.591Z,19.65
2022-10-21T10:38:42.550Z,19.67
2022-10-21T10:42:46.647Z,19.79
2022-10-21T10:46:54.860Z,19.68
2022-10-21T10:50:58.166Z,19.68
2022-10-21T10:55:12.352Z,19.66
2022-10-21T10:59:22.695Z,19.63
2022-10-21T11:03:39.119Z,20.09
2022-10-21T11:07:52.235Z,20.32
2022-10-21T11:11:56.340Z,20.51
2022-10-21T11:16:01.123Z,20.40
2022-10-21T11:20:13.540Z,20.56
2022-10-21T11:24:52.352Z,20.45
2022-10-21T11:29:23.753Z,20.71
2022-10-21T11:33:48.719Z,20.68
2022-10-21T11:38:01.847Z,20.73
2022-10-21T11:42:15.881Z,20.69
2022-10-21T11:46:45.047Z,20.92
2022-10-21T11:51:14.267Z,21.29
2022-10-21T11:55:35.406Z,21.22
2022-10-21T11:59:52.489Z,21.35
2022-10-21T12:04:29.701Z,21.65
2022-10-21T12:08:39.726Z,21.61
2022-10-21T12:12:49.530Z,21.97
2022-10-21T12:16:55.395Z,22.18
2022-10-21T12:20:59.102Z,22.29
2022-10-21T12:25:28.836Z,22.48
2022-10-21T12:29:33.759Z,22.60
2022-10-21T12:33:37.426Z,22.73
2022-10-21T12:37:42.553Z,22.74
2022-10-21T12:41:47.313Z,22.71
2022-10-21T12:46:11.248Z,22.85
2022-10-21T12:50:19.555Z,22.84
2022-10-21T12:54:28.099Z,22.45
2022-10-21T12:58:59.732Z,22.35
2022-10-21T13:03:12.497Z,22.60
2022-10-21T13:07:19.513Z,22.70
2022-10-21T13:11:40.580Z,22.16
2022-10-21T13:15:46.896Z,22.29
2022-10-21T13:19:53.662Z,22.40
2022-10-21T13:24:11.852Z,22.36
2022-10-21T13:28:13.859Z,22.31
2022-10-21T13:32:17.356Z,22.13
2022-10-21T13:36:39.413Z,22.34
2022-10-21T13:40:48.600Z,22.46
2022-10-21T13:44:53.902Z,22.54
2022-10-21T13:48:59.656Z,22.13
2022-10-21T13:53:05.706Z,22.08
2022-10-21T13:57:08.753Z,22.14
2022-10-21T14:01:20.140Z,22.06
2022-10-21T14:05:46.589Z,21.95
2022-10-21T14:09:52.273Z,21.92
2022-10-21T14:13:58.311Z,21.96
2022-10-21T14:18:00.341Z,21.57
2022-10-21T14:26:09.799Z,21.40
2022-10-21T14:30:18.197Z,21.30
2022-10-21T14:34:22.833Z,20.98
2022-10-21T14:38:28.443Z,20.90
2022-10-21T14:42:33.205Z,20.63
2022-10-21T14:46:47.944Z,20.51
2022-10-21T14:50:55.755Z,20.34
2022-10-21T14:55:01.462Z,20.25
2022-10-21T14:59:42.708Z,20.23
2022-10-21T15:03:56.161Z,20.21
2022-10-21T15:08:26.390Z,20.11
2022-10-21T15:12:50.497Z,19.80
2022-10-21T15:16:55.677Z,19.65
2022-10-21T15:20:59.798Z,19.55
2022-10-21T15:25:06.643Z,19.44
2022-10-21T15:29:33.182Z,19.46
2022-10-21T15:33:35.070Z,19.44
2022-10-21T15:37:37.139Z,19.52
2022-10-21T15:41:39.563Z,19.53
2022-10-21T15:45:41.546Z,19.54
2022-10-21T15:49:46.210Z,19.53
2022-10-21T15:53:48.482Z,19.51
2022-10-21T15:57:50.391Z,19.41
2022-10-21T16:01:53.220Z,19.34
2022-10-21T16:05:55.305Z,19.27
2022-10-21T16:09:57.364Z,19.07
2022-10-21T16:13:59.331Z,18.93
2022-10-21T16:18:01.506Z,18.78
2022-10-21T16:22:04.138Z,18.52
2022-10-21T16:26:21.664Z,18.37
2022-10-21T16:30:27.838Z,18.28
2022-10-21T16:34:30.800Z,18.10
2022-10-21T16:38:32.761Z,17.85
2022-10-21T16:42:35.066Z,17.75
2022-10-21T16:46:52.460Z,17.70
2022-10-21T16:50:54.653Z,17.63
2022-10-21T16:54:56.887Z,17.62
2022-10-21T16:58:58.943Z,17.45
2022-10-21T17:03:00.998Z,17.29
2022-10-21T17:07:03.045Z,17.24
2022-10-21T17:11:07.920Z,17.16
2022-10-21T17:15:14.638Z,17.06
2022-10-21T17:19:16.586Z,17.03
2022-10-21T17:23:18.592Z,17.01
2022-10-21T17:27:21.621Z,16.93
2022-10-21T17:31:25.635Z,16.63
2022-10-21T17:35:27.659Z,16.59
2022-10-21T17:39:29.578Z,16.57
2022-10-21T17:43:31.609Z,16.51
2022-10-21T17:47:33.856Z,16.46
2022-10-21T17:51:36.022Z,16.34
2022-10-21T17:55:38.120Z,16.05
2022-10-21T17:59:40.148Z,15.92
2022-10-21T18:03:42.522Z,16.10
2022-10-21T18:07:44.562Z,16.22
2022-10-21T18:11:46.561Z,16.29
2022-10-21T18:15:50.296Z,16.15
2022-10-21T18:19:52.309Z,16.10
2022-10-21T18:23:54.419Z,15.87
2022-10-21T18:27:56.666Z,15.76
2022-10-21T18:31:58.731Z,15.83
2022-10-21T18:36:12.027Z,15.96
2022-10-21T18:40:14.165Z,15.99
2022-10-21T18:44:16.138Z,15.94
2022-10-21T18:48:18.068Z,15.96
2022-10-21T18:52:20.323Z,15.87
2022-10-21T18:56:24.413Z,15.97
2022-10-21T19:00:26.422Z,15.96
2022-10-21T19:04:28.505Z,15.94
2022-10-21T19:08:30.525Z,15.99
2022-10-21T19:12:32.512Z,15.97
2022-10-21T19:16:34.692Z,15.86
2022-10-21T19:20:36.783Z,15.90
2022-10-21T19:24:38.713Z,15.81
2022-10-21T19:28:41.016Z,15.57
2022-10-21T19:32:43.107Z,15.61
2022-10-21T19:36:45.518Z,15.72
2022-10-21T19:44:54.510Z,15.59
2022-10-21T19:48:56.848Z,15.51
2022-10-21T19:52:59.064Z,15.55
2022-10-21T19:57:01.129Z,15.61
2022-10-21T20:01:17.260Z,15.58
2022-10-21T20:05:19.284Z,15.50
2022-10-21T20:09:21.239Z,15.45
2022-10-21T20:13:24.134Z,15.34
2022-10-21T20:17:26.168Z,15.41
2022-10-21T20:21:30.036Z,15.35
2022-10-21T20:25:32.123Z,15.31
2022-10-21T20:29:34.477Z,15.29
2022-10-21T20:33:46.483Z,15.12
2022-10-21T20:37:48.591Z,15.06
2022-10-21T20:41:50.614Z,15.05
2022-10-21T20:45:52.555Z,15.01
2022-10-21T20:49:54.613Z,14.73
2022-10-21T20:54:06.362Z,14.60
2022-10-21T20:58:08.260Z,14.48
2022-10-21T21:02:10.243Z,14.40
2022-10-21T21:06:12.678Z,14.43
2022-10-21T21:10:14.789Z,14.49
2022-10-21T21:14:16.984Z,14.56
2022-10-21T21:18:18.996Z,14.48
2022-10-21T21:22:21.228Z,14.24
2022-10-21T21:26:25.316Z,14.21
2022-10-21T21:30:27.643Z,14.18
2022-10-21T21:34:29.681Z,14.15
2022-10-21T21:38:33.526Z,14.21
2022-10-21T21:42:35.508Z,14.18
2022-10-21T21:46:37.524Z,14.24
2022-10-21T21:50:40.615Z,14.25
2022-10-21T21:54:42.729Z,14.21
2022-10-21T21:58:45.996Z,14.32
2022-10-21T22:02:48.401Z,14.35
2022-10-21T22:06:50.268Z,14.48
2022-10-21T22:10:52.322Z,14.50
2022-10-21T22:14:54.326Z,14.61
2022-10-21T22:18:59.898Z,14.57
2022-10-21T22:23:01.979Z,14.67
2022-10-21T22:27:03.999Z,14.75
2022-10-21T22:31:11.966Z,14.77
2022-10-21T22:35:13.997Z,14.73
2022-10-21T22:39:16.032Z,14.75
2022-10-21T22:43:17.973Z,14.79
2022-10-21T22:47:23.365Z,14.70
2022-10-21T22:51:25.526Z,14.58
2022-10-21T22:55:27.544Z,14.55
2022-10-21T22:59:29.538Z,14.56
2022-10-21T23:03:31.553Z,14.65
2022-10-21T23:07:33.535Z,14.75
2022-10-21T23:11:35.456Z,14.89
2022-10-21T23:15:38.195Z,15.02
2022-10-21T23:19:40.335Z,14.99
2022-10-21T23:23:42.469Z,15.11
2022-10-21T23:27:44.454Z,15.17
2022-10-21T23:31:46.351Z,15.22
2022-10-21T23:35:49.508Z,15.21
2022-10-21T23:39:51.481Z,15.20
2022-10-21T23:43:53.853Z,15.30
2022-10-21T23:47:55.766Z,15.19
2022-10-21T23:51:58.471Z,15.24
2022-10-21T23:56:00.599Z,15.20
